Clearwater, Washington
Current Conditions -  °F | °C
As of 5:53 AM on Saturday 25 Oct 2014 (Local Time) from KUIL Reporting Station
Overcast Overcast  
Wind Chill: 53°   Ceiling: 5000
Heat Index: 53°   Visibility: 7mi
Dew Point: 52°   Wind: 9mph
Humidity: 96%   Direction: 80°E
Pressure: 29.4"   Gusts: NA
Location:  47.9519°N, 124.29°W
Report Text: KUIL 251253Z AUTO 08008KT 7SM SCT038 BKN050 OVC065 12/11 A2940 RMK AO2 RAE40 SLP956 P0001 T01170111
Loading
Personal Weather Stations






























Interactive Weather Map
Tropical Storm Tracking
New forecast layout! Learn more

10-Day Weather Forecast

Advertisements
Track Severe Weather on mobile